Time;durP1;ratioP1;P1;durP2;ratioP2;P2;SDS_P1;SDS_P2;PMS_P1;PMS_P2;Temp;Humidity;BMP_temperature;BMP_pressure;BME280_temperature;BME280_humidity;BME280_pressure;Samples;Min_cycle;Max_cycle;Signal;HPM_P1;HPM_P2
2021/12/11 00:00:49;;;;;;;19.47;13.00;;;-2.00;35.40;;;;;;5081190;28;20573;-62
2021/12/11 00:03:19;;;;;;;18.23;13.47;;;-2.00;99.90;;;;;;5081002;28;20469;-60
2021/12/11 00:05:50;;;;;;;23.67;16.10;;;-1.90;99.90;;;;;;5079424;28;21007;-61
2021/12/11 00:08:20;;;;;;;20.70;14.37;;;-1.80;99.90;;;;;;5081412;28;20510;-63
2021/12/11 00:10:52;;;;;;;24.37;15.10;;;-1.60;1.00;;;;;;5080706;28;20587;-62
2021/12/11 00:13:27;;;;;;;21.60;14.50;;;-1.60;99.90;;;;;;5080195;28;20501;-62
2021/12/11 00:15:56;;;;;;;20.83;14.27;;;-1.60;99.90;;;;;;5079891;28;20496;-62
2021/12/11 00:18:28;;;;;;;18.03;12.00;;;-1.50;99.90;;;;;;5079993;28;20524;-62
2021/12/11 00:20:58;;;;;;;19.57;11.30;;;-1.50;99.90;;;;;;5080279;28;20468;-63
2021/12/11 00:23:29;;;;;;;15.00;10.03;;;-1.50;99.90;;;;;;5080688;28;20457;-62
2021/12/11 00:25:57;;;;;;;15.17;11.57;;;-1.50;99.90;;;;;;5079878;28;20523;-63
2021/12/11 00:28:30;;;;;;;18.40;12.20;;;-1.60;99.90;;;;;;5080503;28;20485;-62
2021/12/11 00:30:59;;;;;;;19.20;12.93;;;-1.60;99.90;;;;;;5081229;28;20468;-63
2021/12/11 00:33:32;;;;;;;20.40;13.30;;;-1.70;99.90;;;;;;5080093;28;20906;-63
2021/12/11 00:36:03;;;;;;;26.07;14.00;;;-1.80;38.30;;;;;;5080918;28;20493;-62
2021/12/11 00:38:34;;;;;;;19.50;12.43;;;-1.90;1.00;;;;;;5081429;28;20481;-62
2021/12/11 00:41:04;;;;;;;17.30;11.10;;;-1.90;1.00;;;;;;5081604;28;20520;-62
2021/12/11 00:43:34;;;;;;;16.20;11.13;;;-2.00;1.00;;;;;;5080360;28;20511;-62
2021/12/11 00:46:04;;;;;;;16.40;12.80;;;-2.00;1.00;;;;;;5080615;28;20493;-62
2021/12/11 00:48:37;;;;;;;19.43;12.60;;;-2.00;1.00;;;;;;5080280;28;20852;-60
2021/12/11 00:51:11;;;;;;;16.90;12.00;;;-2.00;1.00;;;;;;5080063;28;20465;-62
2021/12/11 00:53:41;;;;;;;20.47;12.23;;;-1.90;1.00;;;;;;5080802;28;20444;-61
2021/12/11 00:56:14;;;;;;;20.63;12.80;;;-1.80;1.00;;;;;;5080068;28;20463;-62
2021/12/11 00:58:43;;;;;;;27.43;13.57;;;-1.80;1.00;;;;;;5080025;28;20506;-61
2021/12/11 01:01:14;;;;;;;17.50;12.60;;;-1.70;1.00;;;;;;5080406;28;20463;-60
2021/12/11 01:03:43;;;;;;;15.50;11.13;;;-1.70;1.00;;;;;;5079659;28;20518;-60
2021/12/11 01:06:17;;;;;;;19.83;11.87;;;-1.60;87.90;;;;;;5079287;28;20496;-62
2021/12/11 01:08:54;;;;;;;18.60;11.27;;;-1.60;99.90;;;;;;5079242;28;20504;-61
2021/12/11 01:11:29;;;;;;;17.23;10.87;;;-1.50;99.90;;;;;;5079239;28;20563;-59
2021/12/11 01:14:09;;;;;;;16.83;12.10;;;-1.40;99.90;;;;;;5079846;28;20903;-58
2021/12/11 01:16:37;;;;;;;16.17;12.00;;;-1.40;99.90;;;;;;5078119;28;20493;-61
2021/12/11 01:19:07;;;;;;;15.63;11.50;;;-1.40;99.90;;;;;;5078968;28;20461;-62
2021/12/11 01:21:54;;;;;;;14.80;11.00;;;-1.40;99.90;;;;;;5079346;28;20461;-59
2021/12/11 01:24:29;;;;;;;17.00;11.80;;;-1.30;99.90;;;;;;5079737;28;20450;-61
2021/12/11 01:27:01;;;;;;;20.37;12.60;;;-1.30;99.90;;;;;;5072413;28;20782;-61
2021/12/11 01:29:32;;;;;;;17.83;11.30;;;-1.20;99.90;;;;;;5079669;28;20458;-60
2021/12/11 01:32:01;;;;;;;16.47;11.00;;;-1.10;99.90;;;;;;5079304;28;20515;-60
2021/12/11 01:34:30;;;;;;;18.73;11.50;;;-1.00;99.90;;;;;;5078799;28;20464;-61
2021/12/11 01:36:58;;;;;;;14.60;10.80;;;-1.00;99.90;;;;;;5078705;28;20957;-59
2021/12/11 01:39:27;;;;;;;15.50;10.73;;;-0.90;99.90;;;;;;5079596;28;20491;-61
2021/12/11 01:41:56;;;;;;;15.03;10.97;;;-0.90;99.90;;;;;;5079203;28;20521;-60
2021/12/11 01:44:29;;;;;;;14.63;11.10;;;-0.80;99.90;;;;;;5079090;28;20460;-61
2021/12/11 01:47:02;;;;;;;17.67;10.80;;;-0.80;99.90;;;;;;5078834;28;20466;-59
2021/12/11 01:49:30;;;;;;;21.50;12.10;;;-0.80;99.90;;;;;;5078874;28;20547;-59
2021/12/11 01:52:02;;;;;;;13.90;10.73;;;-0.70;99.90;;;;;;5079249;28;20897;-62
2021/12/11 01:54:36;;;;;;;18.93;11.20;;;-0.70;99.90;;;;;;5078376;28;20463;-61
2021/12/11 01:57:12;;;;;;;13.63;10.50;;;-0.60;99.90;;;;;;5078677;28;20439;-62
2021/12/11 01:59:53;;;;;;;18.60;10.60;;;-0.60;99.90;;;;;;5070881;28;20487;-61
2021/12/11 02:02:25;;;;;;;21.00;12.00;;;-0.60;99.90;;;;;;5078215;28;20473;-61
2021/12/11 02:04:55;;;;;;;25.10;11.83;;;-0.60;99.90;;;;;;5078974;28;20512;-62
2021/12/11 02:07:24;;;;;;;20.13;10.73;;;-0.50;99.90;;;;;;5077708;28;20457;-62
2021/12/11 02:09:57;;;;;;;18.70;11.70;;;-0.50;99.90;;;;;;5078680;28;20952;-62
2021/12/11 02:12:30;;;;;;;24.53;12.57;;;-0.40;99.90;;;;;;5078368;28;20468;-61
2021/12/11 02:15:01;;;;;;;16.87;11.90;;;-0.40;99.90;;;;;;5078972;28;20487;-61
2021/12/11 02:17:33;;;;;;;18.70;13.03;;;-0.40;99.90;;;;;;5077932;28;20460;-59
2021/12/11 02:20:06;;;;;;;18.80;12.13;;;-0.30;99.90;;;;;;5077433;28;20491;-61
2021/12/11 02:22:41;;;;;;;21.53;13.50;;;-0.40;99.90;;;;;;5074328;28;20465;-61
2021/12/11 02:25:12;;;;;;;70.30;23.63;;;-0.30;99.90;;;;;;5078587;28;20550;-61
2021/12/11 02:27:44;;;;;;;83.20;30.97;;;-0.20;99.90;;;;;;5078842;28;20809;-61
2021/12/11 02:30:20;;;;;;;77.23;28.80;;;-0.10;99.90;;;;;;5078210;28;20998;-62
2021/12/11 02:32:51;;;;;;;71.73;30.47;;;0.00;99.90;;;;;;5078190;28;20468;-62
2021/12/11 02:35:32;;;;;;;85.53;31.47;;;0.10;99.90;;;;;;5078011;28;20489;-62
2021/12/11 02:38:10;;;;;;;106.90;33.53;;;0.10;99.90;;;;;;5078550;28;20509;-62
2021/12/11 02:40:42;;;;;;;88.33;31.20;;;0.20;99.90;;;;;;5077940;28;20970;-62
2021/12/11 02:43:14;;;;;;;69.53;30.07;;;0.30;99.90;;;;;;5079204;28;20524;-63
2021/12/11 02:45:44;;;;;;;59.57;29.10;;;0.20;99.90;;;;;;5078360;28;20516;-62
2021/12/11 02:48:18;;;;;;;58.57;27.13;;;0.30;99.90;;;;;;5084130;28;20484;-62
2021/12/11 02:50:52;;;;;;;52.50;25.10;;;0.30;99.90;;;;;;5083078;28;20895;-61
2021/12/11 02:53:26;;;;;;;63.17;25.83;;;0.30;99.90;;;;;;5078758;28;20785;-60
2021/12/11 02:55:57;;;;;;;62.50;27.90;;;0.20;99.90;;;;;;5078055;28;20486;-62
2021/12/11 02:58:26;;;;;;;75.67;32.00;;;0.30;99.90;;;;;;5078954;28;20486;-62
2021/12/11 03:00:58;;;;;;;63.07;30.10;;;0.30;99.90;;;;;;5077750;28;20546;-62
2021/12/11 03:03:30;;;;;;;66.80;30.63;;;0.30;99.90;;;;;;5078682;28;20460;-63
2021/12/11 03:06:05;;;;;;;66.70;31.07;;;0.30;99.90;;;;;;5077444;28;20499;-63
2021/12/11 03:08:34;;;;;;;72.33;33.87;;;0.40;99.90;;;;;;5078296;28;20891;-63
2021/12/11 03:11:05;;;;;;;74.63;32.33;;;0.40;99.90;;;;;;5077817;28;20489;-63
2021/12/11 03:13:38;;;;;;;67.87;30.80;;;0.50;99.90;;;;;;5078253;28;20484;-63
2021/12/11 03:16:05;;;;;;;67.40;32.07;;;0.50;99.90;;;;;;5077432;28;20735;-63
2021/12/11 03:18:37;;;;;;;77.83;32.60;;;0.60;99.90;;;;;;5078408;28;20443;-63
2021/12/11 03:21:07;;;;;;;80.57;32.27;;;0.60;99.90;;;;;;5077033;28;20540;-63
2021/12/11 03:23:36;;;;;;;69.93;31.20;;;0.50;99.90;;;;;;5078069;28;20491;-63
2021/12/11 03:26:03;;;;;;;84.07;30.60;;;0.60;99.90;;;;;;5077627;28;20499;-63
2021/12/11 03:28:30;;;;;;;59.30;31.47;;;0.50;99.90;;;;;;5077879;28;20730;-63
2021/12/11 03:31:00;;;;;;;62.33;30.10;;;0.50;99.90;;;;;;5077087;28;20504;-63
2021/12/11 03:33:30;;;;;;;64.90;29.87;;;0.60;99.90;;;;;;5077953;28;20752;-63
2021/12/11 03:35:57;;;;;;;66.87;31.13;;;0.60;99.90;;;;;;5077006;28;20488;-62
2021/12/11 03:38:26;;;;;;;78.57;33.70;;;0.60;99.90;;;;;;5078282;28;20539;-62
2021/12/11 03:40:55;;;;;;;100.97;35.50;;;0.60;99.90;;;;;;5079214;28;20529;-62
2021/12/11 03:43:24;;;;;;;95.43;33.07;;;0.60;99.90;;;;;;5081528;28;20504;-62
2021/12/11 03:45:56;;;;;;;84.07;33.57;;;0.60;99.90;;;;;;5080822;28;20489;-63
2021/12/11 03:48:27;;;;;;;79.60;34.00;;;0.60;99.90;;;;;;5080515;28;20532;-63
2021/12/11 03:50:55;;;;;;;88.37;36.63;;;0.60;99.90;;;;;;5082317;28;20497;-62
2021/12/11 03:53:23;;;;;;;74.63;35.17;;;0.50;99.90;;;;;;5080458;28;20517;-63
2021/12/11 03:55:53;;;;;;;84.00;33.73;;;0.50;99.90;;;;;;5081185;28;20460;-63
2021/12/11 03:58:24;;;;;;;91.40;35.73;;;0.60;99.90;;;;;;5081395;28;20495;-62
2021/12/11 04:01:00;;;;;;;80.17;33.40;;;0.60;99.90;;;;;;5080562;28;20463;-63
2021/12/11 04:03:30;;;;;;;77.80;35.63;;;0.60;99.90;;;;;;5080333;28;20469;-62
2021/12/11 04:05:59;;;;;;;91.87;36.27;;;0.60;99.90;;;;;;5080743;28;20823;-62
2021/12/11 04:08:29;;;;;;;80.27;34.63;;;0.60;99.90;;;;;;5080791;28;20465;-63
2021/12/11 04:10:57;;;;;;;90.50;36.70;;;0.70;99.90;;;;;;5081095;28;20476;-62
2021/12/11 04:13:26;;;;;;;80.77;35.50;;;0.70;99.90;;;;;;5080209;28;20458;-62
2021/12/11 04:15:55;;;;;;;74.80;34.93;;;0.70;99.90;;;;;;5081139;28;20454;-63
2021/12/11 04:18:22;;;;;;;93.07;37.47;;;0.70;99.90;;;;;;5077086;28;20465;-63
2021/12/11 04:20:50;;;;;;;95.40;41.07;;;0.70;99.90;;;;;;5079881;28;20443;-63
2021/12/11 04:23:18;;;;;;;92.07;39.73;;;0.80;99.90;;;;;;5079657;28;20541;-63
2021/12/11 04:25:48;;;;;;;94.17;39.10;;;0.80;99.90;;;;;;5079639;28;20554;-63
2021/12/11 04:28:17;;;;;;;90.43;40.20;;;0.80;99.90;;;;;;5079924;28;20504;-63
2021/12/11 04:30:48;;;;;;;100.70;40.27;;;0.90;99.90;;;;;;5080350;28;20470;-60
2021/12/11 04:33:15;;;;;;;95.93;39.70;;;0.90;99.90;;;;;;5080644;28;20488;-63
2021/12/11 04:35:43;;;;;;;84.47;37.60;;;0.80;99.90;;;;;;5079402;28;20457;-63
2021/12/11 04:38:13;;;;;;;91.20;38.50;;;0.80;99.90;;;;;;5080161;28;20447;-62
2021/12/11 04:40:45;;;;;;;94.67;40.17;;;0.80;99.90;;;;;;5078698;28;21748;-62
2021/12/11 04:43:16;;;;;;;95.90;37.57;;;0.80;99.90;;;;;;5080194;28;20535;-63
2021/12/11 04:45:49;;;;;;;96.97;38.53;;;0.80;99.90;;;;;;5079338;28;20901;-62
2021/12/11 04:48:24;;;;;;;100.07;41.30;;;0.90;99.90;;;;;;5079490;28;20488;-62
2021/12/11 04:50:57;;;;;;;90.20;37.40;;;0.80;99.90;;;;;;5079586;28;20522;-62
2021/12/11 04:53:41;;;;;;;93.53;37.90;;;0.80;99.90;;;;;;5080486;28;20489;-62
2021/12/11 04:56:34;;;;;;;89.50;38.10;;;0.80;99.90;;;;;;5078980;28;20473;-63
2021/12/11 04:59:22;;;;;;;93.23;38.37;;;0.80;99.90;;;;;;5080349;28;20563;-62
2021/12/11 05:02:01;;;;;;;84.77;37.57;;;0.80;99.90;;;;;;5080090;28;20470;-63
2021/12/11 05:04:52;;;;;;;89.67;38.13;;;0.80;99.90;;;;;;5079990;28;20465;-63
2021/12/11 05:07:28;;;;;;;107.87;40.50;;;0.70;99.90;;;;;;5078880;28;20802;-63
2021/12/11 05:10:02;;;;;;;93.73;37.73;;;0.70;99.90;;;;;;5078472;28;20465;-63
2021/12/11 05:12:35;;;;;;;85.73;40.37;;;0.70;99.90;;;;;;5079395;28;20496;-63
2021/12/11 05:15:07;;;;;;;92.50;37.13;;;0.70;99.90;;;;;;5078851;28;20511;-63
2021/12/11 05:17:36;;;;;;;87.03;36.50;;;0.60;99.90;;;;;;5078059;28;20924;-63
2021/12/11 05:20:09;;;;;;;85.13;37.07;;;0.70;99.90;;;;;;5078883;28;20975;-63
2021/12/11 05:22:39;;;;;;;84.27;37.20;;;0.60;99.90;;;;;;5077989;28;20505;-63
2021/12/11 05:25:08;;;;;;;85.57;36.10;;;0.60;99.90;;;;;;5079152;28;20461;-63
2021/12/11 05:27:36;;;;;;;92.43;40.93;;;0.60;99.90;;;;;;5077184;28;20496;-63
2021/12/11 05:30:07;;;;;;;80.50;36.50;;;0.60;99.90;;;;;;5078624;28;20467;-63
2021/12/11 05:32:36;;;;;;;77.47;35.30;;;0.60;99.90;;;;;;5078863;28;20468;-63
2021/12/11 05:35:04;;;;;;;89.27;35.87;;;0.60;99.90;;;;;;5059577;28;20466;-63
2021/12/11 05:37:31;;;;;;;93.77;37.87;;;0.60;99.90;;;;;;5072010;28;20464;-63
2021/12/11 05:39:59;;;;;;;82.20;37.20;;;0.60;99.90;;;;;;5078604;28;20495;-63
2021/12/11 05:42:26;;;;;;;83.73;37.17;;;0.70;99.90;;;;;;5078608;28;20503;-62
2021/12/11 05:44:53;;;;;;;82.97;39.07;;;0.70;99.90;;;;;;5079491;28;20461;-63
2021/12/11 05:47:20;;;;;;;84.33;37.80;;;0.60;99.90;;;;;;5077978;28;20528;-62
2021/12/11 05:49:52;;;;;;;84.37;36.00;;;0.70;99.90;;;;;;5078996;28;20913;-62
2021/12/11 05:52:20;;;;;;;76.00;36.20;;;0.70;99.90;;;;;;5079261;28;20441;-62
2021/12/11 05:54:47;;;;;;;81.23;36.20;;;0.70;99.90;;;;;;5078927;28;20571;-62
2021/12/11 05:57:18;;;;;;;78.77;34.10;;;0.70;99.90;;;;;;5078470;28;20496;-62
2021/12/11 05:59:46;;;;;;;76.23;35.93;;;0.70;99.90;;;;;;5078509;28;20469;-62
2021/12/11 06:02:18;;;;;;;68.80;34.50;;;0.70;99.90;;;;;;5078311;28;20469;-61
2021/12/11 06:04:49;;;;;;;76.00;34.27;;;0.70;99.90;;;;;;5078458;28;20461;-61
2021/12/11 06:07:17;;;;;;;89.00;37.07;;;0.70;99.90;;;;;;5078419;28;20467;-62
2021/12/11 06:09:51;;;;;;;73.43;35.97;;;0.70;99.90;;;;;;5077393;28;20895;-62
2021/12/11 06:12:20;;;;;;;89.60;37.47;;;0.70;99.90;;;;;;5078289;28;20505;-62
2021/12/11 06:14:49;;;;;;;84.83;36.47;;;0.70;99.90;;;;;;5078589;28;20469;-62
2021/12/11 06:17:19;;;;;;;76.03;34.80;;;0.80;99.90;;;;;;5078359;28;20498;-62
2021/12/11 06:19:51;;;;;;;80.23;36.83;;;0.70;99.90;;;;;;5077375;28;20583;-62
2021/12/11 06:22:19;;;;;;;88.93;36.60;;;0.70;99.90;;;;;;5063488;28;20469;-62
2021/12/11 06:24:46;;;;;;;89.57;37.10;;;0.80;99.90;;;;;;5078795;28;20894;-62
2021/12/11 06:27:14;;;;;;;90.20;38.00;;;0.80;99.90;;;;;;5078130;28;20528;-63
2021/12/11 06:29:42;;;;;;;80.90;34.53;;;0.80;99.90;;;;;;5077374;28;20514;-63
2021/12/11 06:32:09;;;;;;;70.80;35.57;;;0.90;99.90;;;;;;5077474;28;20538;-63
2021/12/11 06:34:36;;;;;;;75.63;35.23;;;0.90;99.90;;;;;;5058214;28;20538;-63
2021/12/11 06:37:07;;;;;;;77.83;35.37;;;0.90;99.90;;;;;;5077189;28;20443;-62
2021/12/11 06:39:34;;;;;;;72.00;31.47;;;0.90;99.90;;;;;;5077942;28;20509;-62
2021/12/11 06:42:06;;;;;;;70.00;31.63;;;0.90;99.90;;;;;;5077234;28;20534;-62
2021/12/11 06:44:34;;;;;;;66.43;32.30;;;1.00;99.90;;;;;;5076947;28;20915;-62
2021/12/11 06:47:04;;;;;;;71.60;33.37;;;1.00;99.90;;;;;;5077395;28;20496;-62
2021/12/11 06:49:36;;;;;;;77.07;34.70;;;1.00;99.90;;;;;;5084929;28;20511;-62
2021/12/11 06:52:09;;;;;;;69.77;33.40;;;0.90;99.90;;;;;;5076129;28;20828;-62
2021/12/11 06:54:36;;;;;;;83.27;34.57;;;0.90;99.90;;;;;;5076807;28;20466;-62
2021/12/11 06:57:08;;;;;;;86.67;35.27;;;0.90;99.90;;;;;;5078347;28;20434;-62
2021/12/11 06:59:36;;;;;;;88.10;39.03;;;0.90;99.90;;;;;;5077085;28;20547;-62
2021/12/11 07:02:04;;;;;;;84.47;36.37;;;0.90;99.90;;;;;;5077580;28;20529;-62
2021/12/11 07:04:31;;;;;;;83.77;34.20;;;0.90;99.90;;;;;;5076988;28;20521;-62
2021/12/11 07:07:01;;;;;;;72.80;33.20;;;0.90;99.90;;;;;;5078081;28;20489;-62
2021/12/11 07:09:30;;;;;;;78.23;34.40;;;1.00;99.90;;;;;;5077738;28;20472;-62
2021/12/11 07:12:04;;;;;;;85.13;35.47;;;1.00;99.90;;;;;;5077187;28;20472;-62
2021/12/11 07:14:32;;;;;;;77.53;35.53;;;1.00;99.90;;;;;;5076778;28;20461;-62
2021/12/11 07:17:00;;;;;;;78.00;35.33;;;0.90;99.90;;;;;;5080410;28;20790;-62
2021/12/11 07:19:27;;;;;;;80.90;34.17;;;0.90;99.90;;;;;;5081714;28;20435;-62
2021/12/11 07:21:55;;;;;;;81.10;34.37;;;0.90;99.90;;;;;;5080438;28;20475;-62
2021/12/11 07:24:27;;;;;;;75.77;33.23;;;0.90;99.90;;;;;;5080744;28;20855;-62
2021/12/11 07:26:55;;;;;;;79.70;34.97;;;0.90;99.90;;;;;;5080626;28;20538;-62
2021/12/11 07:29:22;;;;;;;75.40;34.40;;;0.90;99.90;;;;;;5079625;28;20485;-62
2021/12/11 07:31:53;;;;;;;76.60;35.37;;;0.90;99.90;;;;;;5079500;28;20460;-62
2021/12/11 07:34:21;;;;;;;72.20;32.93;;;1.00;99.90;;;;;;5078186;28;20467;-62
2021/12/11 07:36:50;;;;;;;77.57;34.20;;;0.90;99.90;;;;;;5078889;28;20965;-62
2021/12/11 07:39:21;;;;;;;68.43;34.00;;;0.90;99.90;;;;;;5079220;28;20958;-63
2021/12/11 07:41:50;;;;;;;79.40;34.97;;;0.90;99.90;;;;;;5076645;28;20492;-63
2021/12/11 07:44:18;;;;;;;85.20;36.10;;;1.00;99.90;;;;;;5077941;28;20547;-63
2021/12/11 07:46:45;;;;;;;77.20;34.13;;;1.00;99.90;;;;;;5076085;28;20496;-62
2021/12/11 07:49:12;;;;;;;80.27;36.83;;;1.00;99.90;;;;;;5077509;28;20903;-62
2021/12/11 07:51:42;;;;;;;88.33;37.27;;;1.00;99.90;;;;;;5077908;28;20803;-63
2021/12/11 07:54:10;;;;;;;79.70;37.37;;;1.10;99.90;;;;;;5076162;28;20465;-62
2021/12/11 07:56:40;;;;;;;81.60;37.23;;;1.10;99.90;;;;;;5078621;28;20914;-62
2021/12/11 07:59:16;;;;;;;83.00;35.60;;;1.10;99.90;;;;;;5074966;28;20497;-62
2021/12/11 08:01:49;;;;;;;79.27;37.83;;;1.10;99.90;;;;;;5077281;28;20465;-62
2021/12/11 08:04:17;;;;;;;79.50;39.10;;;1.10;99.90;;;;;;5077337;28;20465;-62
2021/12/11 08:06:44;;;;;;;75.30;37.70;;;1.10;99.90;;;;;;5071095;28;20512;-62
2021/12/11 08:09:17;;;;;;;78.00;37.30;;;1.10;99.90;;;;;;5076036;28;20440;-62
2021/12/11 08:11:46;;;;;;;84.27;38.00;;;1.10;99.90;;;;;;5072072;28;20900;-62
2021/12/11 08:14:16;;;;;;;88.57;41.23;;;1.10;99.90;;;;;;5076362;28;20530;-63
2021/12/11 08:16:47;;;;;;;83.37;43.40;;;1.20;99.90;;;;;;5078507;28;20518;-63
2021/12/11 08:19:17;;;;;;;88.10;39.70;;;1.20;99.90;;;;;;5077910;28;20440;-62
2021/12/11 08:21:45;;;;;;;72.97;36.43;;;1.20;99.90;;;;;;5077107;28;20474;-62
2021/12/11 08:24:12;;;;;;;75.93;36.57;;;1.20;99.90;;;;;;5074225;28;20444;-62
2021/12/11 08:26:41;;;;;;;78.00;36.80;;;1.20;99.90;;;;;;5076987;28;20523;-62
2021/12/11 08:29:15;;;;;;;76.17;36.83;;;1.30;99.90;;;;;;5077028;28;20500;-63
2021/12/11 08:31:46;;;;;;;78.23;37.00;;;1.30;99.90;;;;;;5079003;28;20571;-62
2021/12/11 08:34:15;;;;;;;82.30;37.80;;;1.20;99.90;;;;;;5077726;28;20768;-62
2021/12/11 08:36:43;;;;;;;71.73;36.90;;;1.30;99.90;;;;;;5077807;28;20473;-62
2021/12/11 08:39:13;;;;;;;74.30;36.50;;;1.30;99.90;;;;;;5075031;28;20488;-63
2021/12/11 08:41:41;;;;;;;78.67;38.70;;;1.40;99.90;;;;;;5077166;28;20857;-63
2021/12/11 08:44:13;;;;;;;69.40;34.80;;;1.40;99.90;;;;;;5075794;28;20465;-62
2021/12/11 08:46:44;;;;;;;74.17;36.60;;;1.50;99.90;;;;;;5075940;28;20965;-62
2021/12/11 08:49:18;;;;;;;86.60;38.70;;;1.50;99.90;;;;;;5075395;28;20527;-62
2021/12/11 08:51:53;;;;;;;86.60;38.07;;;1.60;99.90;;;;;;5076447;28;20504;-62
2021/12/11 08:54:22;;;;;;;72.47;35.70;;;1.60;99.90;;;;;;5070383;28;20467;-63
2021/12/11 08:56:50;;;;;;;73.00;36.20;;;1.60;99.90;;;;;;5075044;28;20465;-63
2021/12/11 08:59:23;;;;;;;75.33;36.67;;;1.60;99.90;;;;;;5075891;28;20507;-63
2021/12/11 09:02:00;;;;;;;87.00;39.83;;;1.60;99.90;;;;;;5074132;28;21012;-63
2021/12/11 09:04:37;;;;;;;73.00;34.90;;;1.60;99.90;;;;;;5074806;28;20485;-63
2021/12/11 09:07:08;;;;;;;73.83;36.30;;;1.70;99.90;;;;;;5074647;28;20518;-63
2021/12/11 09:09:41;;;;;;;66.20;34.23;;;1.80;99.90;;;;;;5075511;28;20469;-63
2021/12/11 09:12:13;;;;;;;71.33;35.13;;;1.90;99.90;;;;;;5075063;28;20522;-63
2021/12/11 09:14:45;;;;;;;59.47;32.67;;;1.90;99.90;;;;;;5073383;28;20534;-63
2021/12/11 09:17:17;;;;;;;67.57;32.67;;;2.00;99.90;;;;;;5075987;28;20462;-63
2021/12/11 09:19:51;;;;;;;70.87;34.20;;;2.00;99.90;;;;;;5075524;28;20867;-63
2021/12/11 09:22:22;;;;;;;64.13;30.77;;;2.00;99.90;;;;;;5074371;28;20539;-63
2021/12/11 09:24:55;;;;;;;64.53;32.30;;;2.00;99.90;;;;;;5076520;28;20457;-64
2021/12/11 09:27:28;;;;;;;65.23;31.57;;;2.00;99.90;;;;;;5075407;28;20489;-64
2021/12/11 09:29:59;;;;;;;62.97;31.73;;;2.00;99.90;;;;;;5074239;28;20548;-64
2021/12/11 09:32:36;;;;;;;67.83;32.40;;;2.10;99.90;;;;;;5074724;28;20466;-64
2021/12/11 09:35:13;;;;;;;59.80;32.47;;;2.10;99.90;;;;;;5073914;28;20465;-64
2021/12/11 09:37:43;;;;;;;68.33;32.20;;;2.20;99.90;;;;;;5072690;28;20436;-64
2021/12/11 09:40:15;;;;;;;61.57;31.60;;;2.20;99.90;;;;;;5075339;28;20465;-64
2021/12/11 09:42:41;;;;;;;68.90;32.17;;;2.20;99.90;;;;;;5076798;28;20493;-65
2021/12/11 09:45:13;;;;;;;59.33;29.80;;;2.20;99.90;;;;;;5076708;28;20463;-65
2021/12/11 09:47:50;;;;;;;75.93;32.57;;;2.20;99.90;;;;;;5074526;28;20814;-65
2021/12/11 09:50:23;;;;;;;60.20;31.23;;;2.20;99.90;;;;;;5075829;28;20461;-64
2021/12/11 09:52:54;;;;;;;66.63;31.87;;;2.20;99.90;;;;;;5075519;28;20571;-65
2021/12/11 09:55:24;;;;;;;57.90;29.63;;;2.20;99.90;;;;;;5077172;28;20473;-61
2021/12/11 09:57:57;;;;;;;68.33;34.07;;;2.20;99.90;;;;;;5076645;28;20880;-61
2021/12/11 10:00:38;;;;;;;60.20;32.07;;;2.10;99.90;;;;;;5076380;28;20943;-62
2021/12/11 10:03:06;;;;;;;61.43;33.30;;;2.00;99.90;;;;;;5075942;28;20737;-62
2021/12/11 10:05:39;;;;;;;60.93;32.87;;;2.00;99.90;;;;;;5075030;28;20514;-62
2021/12/11 10:08:26;;;;;;;63.60;32.10;;;2.00;99.90;;;;;;5074086;28;20500;-62
2021/12/11 10:11:03;;;;;;;61.00;32.90;;;2.10;99.90;;;;;;5073768;28;20903;-63
2021/12/11 10:13:31;;;;;;;62.27;32.87;;;2.10;99.90;;;;;;5076377;28;20541;-63
2021/12/11 10:15:59;;;;;;;55.60;31.03;;;2.10;99.90;;;;;;5076240;28;20473;-63
2021/12/11 10:18:30;;;;;;;56.37;31.73;;;2.10;99.90;;;;;;5076098;28;20464;-63
2021/12/11 10:21:05;;;;;;;57.40;30.63;;;2.10;99.90;;;;;;5077449;28;20769;-63
2021/12/11 10:23:37;;;;;;;63.70;32.23;;;2.20;99.90;;;;;;5076819;28;20472;-63
2021/12/11 10:26:10;;;;;;;64.70;30.97;;;2.20;99.90;;;;;;5077048;28;20510;-64
2021/12/11 10:28:41;;;;;;;59.03;31.63;;;2.20;99.90;;;;;;5075648;28;21022;-64
2021/12/11 10:31:14;;;;;;;70.10;29.83;;;2.20;99.90;;;;;;5077112;28;20539;-64
2021/12/11 10:33:41;;;;;;;59.77;30.80;;;2.20;99.90;;;;;;5077965;28;20440;-65
2021/12/11 10:36:13;;;;;;;56.90;31.20;;;2.30;99.90;;;;;;5077213;28;20457;-64
2021/12/11 10:38:41;;;;;;;60.97;31.90;;;2.30;99.90;;;;;;5077675;28;20543;-64
2021/12/11 10:41:11;;;;;;;58.47;29.67;;;2.30;99.90;;;;;;5076947;28;20899;-64
2021/12/11 10:43:47;;;;;;;55.60;29.60;;;2.20;99.90;;;;;;5077971;28;20465;-64
2021/12/11 10:46:18;;;;;;;58.40;30.20;;;2.20;99.90;;;;;;5075737;28;20461;-64
2021/12/11 10:48:46;;;;;;;55.17;29.53;;;2.30;99.90;;;;;;5080515;28;20552;-64
2021/12/11 10:51:17;;;;;;;49.97;28.97;;;2.30;99.90;;;;;;5080832;28;20548;-64
2021/12/11 10:53:47;;;;;;;54.80;30.50;;;2.30;99.90;;;;;;5083771;28;20465;-64
2021/12/11 10:56:21;;;;;;;56.07;30.37;;;2.30;99.90;;;;;;5083376;28;20559;-64
2021/12/11 10:58:51;;;;;;;56.73;30.33;;;2.30;99.90;;;;;;5083762;28;20415;-64
2021/12/11 11:01:25;;;;;;;55.83;28.20;;;2.40;99.90;;;;;;5084197;28;20468;-64
2021/12/11 11:03:55;;;;;;;59.73;32.00;;;2.50;99.90;;;;;;5080894;28;20888;-64
2021/12/11 11:06:22;;;;;;;57.10;31.53;;;2.50;99.90;;;;;;5083456;28;20544;-64
2021/12/11 11:08:58;;;;;;;56.87;30.50;;;2.50;99.90;;;;;;5083139;28;20467;-64
2021/12/11 11:11:30;;;;;;;63.67;30.23;;;2.60;99.90;;;;;;5082506;28;20471;-61
2021/12/11 11:13:59;;;;;;;56.07;30.57;;;2.80;99.90;;;;;;5082210;28;20449;-64
2021/12/11 11:16:27;;;;;;;48.23;27.57;;;2.80;99.90;;;;;;5081781;28;21216;-64
2021/12/11 11:18:55;;;;;;;54.90;30.37;;;2.80;99.90;;;;;;5082478;28;20882;-65
2021/12/11 11:21:25;;;;;;;54.40;30.40;;;2.80;99.90;;;;;;5081900;28;20887;-65
2021/12/11 11:23:56;;;;;;;51.57;27.73;;;2.80;99.90;;;;;;5082483;28;20880;-65
2021/12/11 11:26:28;;;;;;;53.27;29.50;;;2.70;99.90;;;;;;5080900;28;20522;-65
2021/12/11 11:28:56;;;;;;;50.63;29.37;;;2.70;99.90;;;;;;5081847;28;20546;-65
2021/12/11 11:31:33;;;;;;;55.30;30.40;;;2.60;99.90;;;;;;5082491;28;20903;-65
2021/12/11 11:34:00;;;;;;;50.57;29.67;;;2.60;99.90;;;;;;5080184;28;20468;-65
2021/12/11 11:36:28;;;;;;;55.37;29.93;;;2.70;99.90;;;;;;5081821;28;20478;-65
2021/12/11 11:39:03;;;;;;;48.13;29.20;;;2.70;99.90;;;;;;5081902;28;20460;-66
2021/12/11 11:41:34;;;;;;;48.83;27.70;;;2.70;99.90;;;;;;5080209;28;20710;-66
2021/12/11 11:44:02;;;;;;;48.13;28.60;;;2.60;99.90;;;;;;5083969;28;20457;-66
2021/12/11 11:46:31;;;;;;;46.40;26.90;;;2.60;99.90;;;;;;5080007;28;20489;-65
2021/12/11 11:49:00;;;;;;;49.13;29.67;;;2.70;99.90;;;;;;5083394;28;20538;-66
2021/12/11 11:51:32;;;;;;;47.07;26.97;;;2.60;99.90;;;;;;5082774;28;20903;-66
2021/12/11 11:53:59;;;;;;;53.10;28.13;;;2.70;99.90;;;;;;5079656;28;20820;-66
2021/12/11 11:56:35;;;;;;;77.53;37.30;;;2.70;99.90;;;;;;5082861;28;20461;-66
2021/12/11 11:59:03;;;;;;;60.07;32.20;;;2.70;99.90;;;;;;5082549;28;20526;-65
2021/12/11 12:01:40;;;;;;;55.83;30.27;;;2.70;99.90;;;;;;5081277;28;20469;-65
2021/12/11 12:04:11;;;;;;;46.17;27.77;;;2.60;99.90;;;;;;5077379;28;20461;-65
2021/12/11 12:06:39;;;;;;;49.90;28.87;;;2.70;99.90;;;;;;5077223;28;20493;-65
2021/12/11 12:09:09;;;;;;;41.87;24.97;;;2.80;99.90;;;;;;5078460;28;21023;-65
2021/12/11 12:11:38;;;;;;;41.07;24.60;;;2.80;99.90;;;;;;5076395;28;20457;-65
2021/12/11 12:14:08;;;;;;;37.83;23.87;;;3.00;99.90;;;;;;5080260;28;20453;-65
2021/12/11 12:16:39;;;;;;;42.57;24.07;;;2.90;99.90;;;;;;5079343;28;20507;-65
2021/12/11 12:19:10;;;;;;;41.20;23.80;;;2.90;99.90;;;;;;5079762;28;20818;-65
2021/12/11 12:21:40;;;;;;;36.83;22.17;;;2.80;99.90;;;;;;5078071;28;20488;-65
2021/12/11 12:24:08;;;;;;;41.00;23.40;;;2.80;99.90;;;;;;5079970;28;20453;-65
2021/12/11 12:26:37;;;;;;;39.73;24.97;;;2.80;99.90;;;;;;5079265;28;20457;-65
2021/12/11 12:29:06;;;;;;;37.40;21.53;;;2.80;99.90;;;;;;5079190;28;20493;-65
2021/12/11 12:31:39;;;;;;;36.47;22.30;;;2.80;99.90;;;;;;5079265;28;20530;-65
2021/12/11 12:34:07;;;;;;;39.90;25.27;;;2.80;99.90;;;;;;5076798;28;20467;-65
2021/12/11 12:36:41;;;;;;;38.00;24.57;;;2.80;99.90;;;;;;5078609;28;20444;-65
2021/12/11 12:39:11;;;;;;;39.87;24.53;;;2.80;99.90;;;;;;5079599;28;20522;-64
2021/12/11 12:41:42;;;;;;;37.10;23.20;;;2.90;99.90;;;;;;5079767;28;20480;-65
2021/12/11 12:44:18;;;;;;;37.27;23.80;;;2.90;99.90;;;;;;5079909;28;20458;-65
2021/12/11 12:46:52;;;;;;;34.67;23.60;;;2.90;99.90;;;;;;5078282;28;20598;-64
2021/12/11 12:49:24;;;;;;;29.67;19.27;;;2.90;99.90;;;;;;5076648;28;20509;-65
2021/12/11 12:51:52;;;;;;;37.90;23.90;;;2.90;99.90;;;;;;5078771;28;20461;-65
2021/12/11 12:54:20;;;;;;;38.60;23.20;;;2.90;99.90;;;;;;5076468;28;20527;-65